createdAt,value
2023-02-23T00:02:06.109Z,99899.88
2023-02-23T00:04:35.206Z,99900.28
2023-02-23T00:07:03.185Z,99901.81
2023-02-23T00:09:35.750Z,99900.06
2023-02-23T00:12:08.390Z,99892.06
2023-02-23T00:14:40.319Z,99899.44
2023-02-23T00:17:15.169Z,99898.53
2023-02-23T00:19:44.024Z,99903.56
2023-02-23T00:22:12.691Z,99909.97
2023-02-23T00:24:42.660Z,99906.66
2023-02-23T00:27:12.782Z,99911.25
2023-02-23T00:29:41.697Z,99907.91
2023-02-23T00:32:09.331Z,99907.84
2023-02-23T00:34:37.294Z,99912.94
2023-02-23T00:37:05.474Z,99907.78
2023-02-23T00:39:35.934Z,99909.78
2023-02-23T00:42:06.263Z,99912.53
2023-02-23T00:44:37.886Z,99901.94
2023-02-23T00:47:10.706Z,99910.81
2023-02-23T00:49:39.115Z,99908.09
2023-02-23T00:52:07.233Z,99912.53
2023-02-23T00:54:36.534Z,99919.25
2023-02-23T00:57:06.131Z,99916.53
2023-02-23T00:59:34.056Z,99914.09
2023-02-23T01:02:01.716Z,99919.53
2023-02-23T01:04:29.494Z,99916.81
2023-02-23T01:06:57.000Z,99919.88
2023-02-23T01:09:28.261Z,99914.78
2023-02-23T01:11:57.181Z,99918.16
2023-02-23T01:14:25.159Z,99924.44
2023-02-23T01:16:52.672Z,99918.16
2023-02-23T01:19:20.734Z,99919.03
2023-02-23T01:21:49.700Z,99916.66
2023-02-23T01:24:18.434Z,99918.63
2023-02-23T01:26:47.454Z,99923.13
2023-02-23T01:29:16.911Z,99916.91
2023-02-23T01:31:46.981Z,99921.16
2023-02-23T01:34:16.589Z,99927.63
2023-02-23T01:36:45.567Z,99916.87
2023-02-23T01:39:19.250Z,99919.56
2023-02-23T01:41:47.331Z,99916.66
2023-02-23T01:44:15.471Z,99916.25
2023-02-23T01:46:45.531Z,99925.13
2023-02-23T01:49:20.271Z,99914.28
2023-02-23T01:51:51.415Z,99915.00
2023-02-23T01:54:22.115Z,99917.56
2023-02-23T01:56:58.338Z,99912.94
2023-02-23T01:59:34.276Z,99916.25
2023-02-23T02:02:05.427Z,99908.50
2023-02-23T02:04:44.416Z,99911.53
2023-02-23T02:07:14.495Z,99910.91
2023-02-23T02:10:03.520Z,99911.75
2023-02-23T02:12:31.804Z,99907.66
2023-02-23T02:15:00.475Z,99909.53
2023-02-23T02:17:53.508Z,99906.50
2023-02-23T02:20:52.468Z,99912.03
2023-02-23T02:23:57.051Z,99915.28
2023-02-23T02:26:54.224Z,99906.75
2023-02-23T02:29:26.579Z,99900.13
2023-02-23T02:32:19.337Z,99902.09
2023-02-23T02:35:35.068Z,99912.09
2023-02-23T02:38:16.594Z,99908.72
2023-02-23T02:40:54.657Z,99902.03
2023-02-23T02:43:43.559Z,99911.91
2023-02-23T02:46:38.193Z,99920.75
2023-02-23T02:49:22.255Z,99914.66
2023-02-23T02:52:08.007Z,99914.59
2023-02-23T02:54:40.639Z,99914.09
2023-02-23T02:57:08.938Z,99913.97
2023-02-23T03:00:07.712Z,99925.66
2023-02-23T03:02:56.812Z,99921.06
2023-02-23T03:06:02.224Z,99925.97
2023-02-23T03:08:59.897Z,99917.72
2023-02-23T03:11:57.496Z,99922.75
2023-02-23T03:15:02.575Z,99915.44
2023-02-23T03:18:02.989Z,99918.34
2023-02-23T03:20:52.227Z,99921.47
2023-02-23T03:23:56.786Z,99927.38
2023-02-23T03:26:49.990Z,99923.59
2023-02-23T03:29:50.395Z,99920.75
2023-02-23T03:32:43.903Z,99924.44
2023-02-23T03:35:34.963Z,99924.66
2023-02-23T03:38:24.043Z,99925.66
2023-02-23T03:41:11.928Z,99923.13
2023-02-23T03:44:05.089Z,99924.13
2023-02-23T03:46:52.309Z,99925.00
2023-02-23T03:49:39.426Z,99923.72
2023-02-23T03:52:33.606Z,99928.44
2023-02-23T03:55:22.728Z,99931.13
2023-02-23T03:58:11.628Z,99930.19
2023-02-23T04:01:02.761Z,99929.19
2023-02-23T04:03:51.256Z,99927.47
2023-02-23T04:06:37.928Z,99928.78
2023-02-23T04:09:25.870Z,99930.41
2023-02-23T04:12:30.806Z,99924.34
2023-02-23T04:15:10.875Z,99927.47
2023-02-23T04:17:39.639Z,99929.53
2023-02-23T04:20:08.615Z,99925.00
2023-02-23T04:22:36.078Z,99930.78
2023-02-23T04:25:06.072Z,99925.75
2023-02-23T04:27:33.866Z,99928.97
2023-02-23T04:30:03.885Z,99921.50
2023-02-23T04:32:31.461Z,99926.91
2023-02-23T04:34:59.289Z,99927.66
2023-02-23T04:37:26.722Z,99922.75
2023-02-23T04:39:54.309Z,99929.56
2023-02-23T04:42:23.005Z,99926.91
2023-02-23T04:44:50.500Z,99927.75
2023-02-23T04:47:17.929Z,99933.37
2023-02-23T04:49:45.729Z,99935.44
2023-02-23T04:52:13.468Z,99928.62
2023-02-23T04:54:41.837Z,99935.78
2023-02-23T04:57:10.077Z,99936.88
2023-02-23T04:59:37.731Z,99927.19
2023-02-23T05:02:05.295Z,99925.78
2023-02-23T05:04:35.388Z,99931.22
2023-02-23T05:07:04.083Z,99928.28
2023-02-23T05:09:31.911Z,99938.59
2023-02-23T05:11:59.700Z,99937.72
2023-02-23T05:14:27.665Z,99938.25
2023-02-23T05:16:55.295Z,99935.13
2023-02-23T05:19:23.332Z,99938.59
2023-02-23T05:21:50.947Z,99943.84
2023-02-23T05:24:20.573Z,99939.06
2023-02-23T05:26:48.956Z,99949.91
2023-02-23T05:29:16.439Z,99943.22
2023-02-23T05:31:45.099Z,99944.34
2023-02-23T05:34:13.007Z,99950.75
2023-02-23T05:36:40.416Z,99951.59
2023-02-23T05:39:08.130Z,99953.78
2023-02-23T05:41:35.925Z,99946.94
2023-02-23T05:44:03.475Z,99949.88
2023-02-23T05:46:31.067Z,99945.88
2023-02-23T05:49:01.869Z,99950.59
2023-02-23T05:51:31.213Z,99955.06
2023-02-23T05:53:59.027Z,99947.47
2023-02-23T05:56:27.368Z,99953.63
2023-02-23T05:58:57.866Z,99964.81
2023-02-23T06:01:27.255Z,99962.44
2023-02-23T06:03:56.149Z,99963.87
2023-02-23T06:06:25.524Z,99965.44
2023-02-23T06:08:53.448Z,99968.47
2023-02-23T06:11:21.670Z,99970.53
2023-02-23T06:13:49.951Z,99976.28
2023-02-23T06:16:17.696Z,99979.19
2023-02-23T06:18:45.637Z,99986.94
2023-02-23T06:21:13.472Z,99989.06
2023-02-23T06:23:40.937Z,99986.50
2023-02-23T06:26:09.527Z,99995.94
2023-02-23T06:28:37.390Z,99997.41
2023-02-23T06:31:06.861Z,100004.62
2023-02-23T06:33:34.934Z,99995.53
2023-02-23T06:36:02.544Z,100009.16
2023-02-23T06:38:29.938Z,100014.81
2023-02-23T06:40:57.775Z,100012.97
2023-02-23T06:43:25.890Z,100016.16
2023-02-23T06:45:53.388Z,100013.53
2023-02-23T06:48:21.145Z,100021.97
2023-02-23T06:50:48.710Z,100021.56
2023-02-23T06:53:16.151Z,100027.78
2023-02-23T06:55:44.163Z,100026.56
2023-02-23T06:58:11.718Z,100016.53
2023-02-23T07:00:43.008Z,100021.56
2023-02-23T07:03:11.312Z,100026.31
2023-02-23T07:05:38.851Z,100032.09
2023-02-23T07:08:06.694Z,100026.00
2023-02-23T07:10:35.206Z,100019.38
2023-02-23T07:13:03.019Z,100038.53
2023-02-23T07:15:30.589Z,100030.75
2023-02-23T07:17:58.372Z,100037.37
2023-02-23T07:20:25.897Z,100028.28
2023-02-23T07:22:54.845Z,100038.22
2023-02-23T07:25:22.659Z,100038.75
2023-02-23T07:27:51.258Z,100032.00
2023-02-23T07:30:19.666Z,100032.09
2023-02-23T07:32:47.540Z,100039.59
2023-02-23T07:35:15.405Z,100031.00
2023-02-23T07:37:42.926Z,100034.91
2023-02-23T07:40:11.274Z,100034.19
2023-02-23T07:42:38.669Z,100043.59
2023-02-23T07:45:06.842Z,100038.34
2023-02-23T07:47:34.787Z,100037.72
2023-02-23T07:50:03.556Z,100037.50
2023-02-23T07:52:31.207Z,100036.59
2023-02-23T07:54:58.942Z,100038.31
2023-02-23T07:57:26.951Z,100037.81
2023-02-23T07:59:56.500Z,100037.06
2023-02-23T08:02:24.257Z,100040.28
2023-02-23T08:04:54.431Z,100029.19
2023-02-23T08:07:22.274Z,100037.50
2023-02-23T08:09:49.759Z,100037.31
2023-02-23T08:12:17.885Z,100037.28
2023-02-23T08:14:45.347Z,100039.72
2023-02-23T08:17:12.773Z,100038.69
2023-02-23T08:19:40.680Z,100039.47
2023-02-23T08:22:10.116Z,100032.56
2023-02-23T08:24:38.172Z,100047.94
2023-02-23T08:27:06.104Z,100049.56
2023-02-23T08:29:34.966Z,100050.97
2023-02-23T08:32:04.087Z,100046.69
2023-02-23T08:34:32.204Z,100049.50
2023-02-23T08:37:00.151Z,100043.72
2023-02-23T08:39:27.828Z,100054.88
2023-02-23T08:41:55.716Z,100053.66
2023-02-23T08:44:23.152Z,100051.34
2023-02-23T08:46:50.674Z,100046.63
2023-02-23T08:49:18.500Z,100046.97
2023-02-23T08:51:47.009Z,100056.69
2023-02-23T08:54:16.361Z,100055.16
2023-02-23T08:56:44.999Z,100055.88
2023-02-23T08:59:13.546Z,100059.75
2023-02-23T09:01:42.477Z,100064.59
2023-02-23T09:04:10.373Z,100052.59
2023-02-23T09:06:37.845Z,100059.00
2023-02-23T09:09:05.204Z,100058.09
2023-02-23T09:11:33.136Z,100057.09
2023-02-23T09:14:00.797Z,100057.53
2023-02-23T09:16:28.211Z,100060.53
2023-02-23T09:18:56.046Z,100057.41
2023-02-23T09:21:25.231Z,100063.59
2023-02-23T09:23:56.017Z,100064.78
2023-02-23T09:26:24.416Z,100058.72
2023-02-23T09:28:52.214Z,100060.09
2023-02-23T09:31:22.739Z,100068.16
2023-02-23T09:33:51.614Z,100068.22
2023-02-23T09:36:22.460Z,100068.78
2023-02-23T09:38:55.226Z,100064.63
2023-02-23T09:41:26.113Z,100068.81
2023-02-23T09:44:00.364Z,100067.13
2023-02-23T09:46:38.570Z,100064.81
2023-02-23T09:49:13.874Z,100073.59
2023-02-23T09:51:46.465Z,100069.25
2023-02-23T09:54:13.818Z,100067.94
2023-02-23T09:56:44.562Z,100064.31
2023-02-23T09:59:15.703Z,100063.63
2023-02-23T10:01:55.133Z,100063.41
2023-02-23T10:04:29.050Z,100059.22
2023-02-23T10:07:05.470Z,100067.19
2023-02-23T10:09:48.444Z,100074.69
2023-02-23T10:13:04.246Z,100069.56
2023-02-23T10:15:45.689Z,100067.06
2023-02-23T10:18:46.542Z,100074.03
2023-02-23T10:21:24.754Z,100077.09
2023-02-23T10:24:22.963Z,100069.62
2023-02-23T10:26:54.350Z,100077.06
2023-02-23T10:29:46.308Z,100069.03
2023-02-23T10:32:22.617Z,100070.91
2023-02-23T10:34:53.931Z,100068.38
2023-02-23T10:37:22.581Z,100069.75
2023-02-23T10:39:51.802Z,100056.88
2023-02-23T10:42:24.429Z,100054.94
2023-02-23T10:44:52.170Z,100048.78
2023-02-23T10:47:21.904Z,100047.47
2023-02-23T10:49:54.665Z,100053.53
2023-02-23T10:52:31.707Z,100041.00
2023-02-23T10:55:00.808Z,100045.44
2023-02-23T10:57:34.328Z,100042.72
2023-02-23T11:00:04.424Z,100036.56
2023-02-23T11:02:32.723Z,100033.66
2023-02-23T11:05:01.391Z,100034.50
2023-02-23T11:07:33.489Z,100030.00
2023-02-23T11:10:23.562Z,100031.56
2023-02-23T11:12:51.132Z,100025.28
2023-02-23T11:15:49.850Z,100022.69
2023-02-23T11:18:21.247Z,100020.03
2023-02-23T11:20:49.630Z,100010.81
2023-02-23T11:23:24.130Z,100012.91
2023-02-23T11:25:55.524Z,100013.69
2023-02-23T11:28:32.744Z,100014.25
2023-02-23T11:31:21.638Z,100011.41
2023-02-23T11:33:50.277Z,99999.84
2023-02-23T11:36:24.107Z,100000.16
2023-02-23T11:39:06.276Z,100003.13
2023-02-23T11:41:37.263Z,100007.09
2023-02-23T11:44:06.244Z,100004.38
2023-02-23T11:46:39.309Z,100001.94
2023-02-23T11:49:08.609Z,99996.81
2023-02-23T11:51:41.816Z,100003.81
2023-02-23T11:54:22.309Z,99997.38
2023-02-23T11:56:55.375Z,99987.19
2023-02-23T12:03:34.365Z,99984.19
2023-02-23T12:16:25.192Z,99976.03
2023-02-23T12:23:17.905Z,99967.25
2023-02-23T12:26:15.934Z,99961.69
2023-02-23T12:30:36.650Z,99962.09
2023-02-23T12:33:52.873Z,99952.72
2023-02-23T12:36:43.900Z,99952.16
2023-02-23T12:39:33.713Z,99951.97
2023-02-23T12:42:04.649Z,99942.13
2023-02-23T12:44:37.983Z,99938.00
2023-02-23T12:47:24.861Z,99937.53
2023-02-23T12:50:07.572Z,99933.50
2023-02-23T12:52:40.092Z,99925.34
2023-02-23T12:55:11.908Z,99927.16
2023-02-23T12:57:45.675Z,99926.31
2023-02-23T13:00:34.417Z,99918.34
2023-02-23T13:03:37.207Z,99918.50
2023-02-23T13:06:17.927Z,99918.41
2023-02-23T13:08:48.882Z,99911.81
2023-02-23T13:11:39.373Z,99907.84
2023-02-23T13:14:29.822Z,99905.72
2023-02-23T13:17:14.127Z,99912.28
2023-02-23T13:19:46.622Z,99902.13
2023-02-23T13:22:48.450Z,99906.94
2023-02-23T13:25:34.250Z,99895.75
2023-02-23T13:28:02.188Z,99903.06
2023-02-23T13:30:35.498Z,99904.41
2023-02-23T13:33:16.931Z,99896.50
2023-02-23T13:35:44.816Z,99896.50
2023-02-23T13:38:23.753Z,99900.59
2023-02-23T13:41:26.732Z,99903.16
2023-02-23T13:44:01.716Z,99897.72
2023-02-23T13:46:39.037Z,99893.69
2023-02-23T13:49:17.217Z,99886.13
2023-02-23T13:51:59.196Z,99891.06
2023-02-23T13:54:41.110Z,99885.97
2023-02-23T13:57:19.115Z,99880.16
2023-02-23T13:59:52.381Z,99877.44
2023-02-23T14:02:44.296Z,99880.06
2023-02-23T14:05:31.784Z,99877.94
2023-02-23T14:08:05.347Z,99881.16
2023-02-23T14:10:45.379Z,99879.03
2023-02-23T14:13:23.419Z,99874.00
2023-02-23T14:16:20.262Z,99872.28
2023-02-23T14:18:58.100Z,99875.69
2023-02-23T14:21:32.373Z,99873.94
2023-02-23T14:24:03.299Z,99876.41
2023-02-23T14:26:31.072Z,99881.59
2023-02-23T14:29:17.731Z,99883.94
2023-02-23T14:32:00.941Z,99881.38
2023-02-23T14:34:59.654Z,99882.16
2023-02-23T14:40:16.907Z,99875.75
2023-02-23T14:42:51.270Z,99883.59
2023-02-23T14:45:28.779Z,99875.38
2023-02-23T14:53:22.423Z,99873.06
2023-02-23T14:55:50.805Z,99872.44
2023-02-23T15:01:38.643Z,99874.91
2023-02-23T15:07:00.133Z,99871.91
2023-02-23T15:09:33.445Z,99871.91
2023-02-23T15:12:07.373Z,99871.63
2023-02-23T15:17:18.458Z,99866.31
2023-02-23T15:19:48.421Z,99866.31
2023-02-23T15:25:14.337Z,99860.56
2023-02-23T15:27:44.156Z,99862.69
2023-02-23T15:30:27.791Z,99865.06
2023-02-23T15:33:12.698Z,99865.25
2023-02-23T15:35:48.351Z,99871.56
2023-02-23T15:38:41.758Z,99862.31
2023-02-23T15:45:43.835Z,99867.62
2023-02-23T15:48:18.554Z,99867.62
2023-02-23T15:50:50.940Z,99867.81
2023-02-23T15:58:56.436Z,99859.41
2023-02-23T16:06:55.969Z,99862.13
2023-02-23T16:09:29.027Z,99865.81
2023-02-23T16:14:45.095Z,99864.22
2023-02-23T16:17:25.667Z,99864.22
2023-02-23T16:22:42.351Z,99855.78
2023-02-23T16:26:41.164Z,99860.53
2023-02-23T16:29:14.026Z,99861.94
2023-02-23T16:34:45.467Z,99860.16
2023-02-23T16:37:25.988Z,99866.50
2023-02-23T16:39:58.726Z,99866.78
2023-02-23T16:42:31.726Z,99856.00
2023-02-23T16:50:45.966Z,99843.97
2023-02-23T16:53:14.107Z,99843.97
2023-02-23T16:58:58.188Z,99840.44
2023-02-23T17:01:26.259Z,99850.72
2023-02-23T17:03:54.756Z,99859.13
2023-02-23T17:09:02.538Z,99861.53
2023-02-23T17:14:56.877Z,99860.25
2023-02-23T17:17:24.880Z,99860.25
2023-02-23T17:19:52.374Z,99857.22
2023-02-23T17:25:08.790Z,99859.59
2023-02-23T17:27:37.851Z,99859.59
2023-02-23T17:30:08.688Z,99861.50
2023-02-23T17:32:37.274Z,99873.81
2023-02-23T17:35:56.230Z,99863.19
2023-02-23T17:39:06.559Z,99855.50
2023-02-23T17:41:34.622Z,99855.50
2023-02-23T17:44:05.766Z,99863.84
2023-02-23T17:46:33.325Z,99856.81
2023-02-23T17:49:01.221Z,99858.31
2023-02-23T17:51:28.855Z,99857.63
2023-02-23T17:53:56.548Z,99864.59
2023-02-23T17:56:24.600Z,99865.34
2023-02-23T17:58:52.343Z,99858.06
2023-02-23T18:01:20.550Z,99858.28
2023-02-23T18:03:49.910Z,99853.06
2023-02-23T18:06:17.384Z,99854.75
2023-02-23T18:08:45.507Z,99853.22
2023-02-23T18:11:13.606Z,99860.06
2023-02-23T18:13:41.332Z,99846.03
2023-02-23T18:16:10.481Z,99847.13
2023-02-23T18:18:39.914Z,99843.94
2023-02-23T18:21:11.817Z,99844.03
2023-02-23T18:23:39.785Z,99842.25
2023-02-23T18:26:15.656Z,99848.78
2023-02-23T18:28:45.701Z,99841.72
2023-02-23T18:31:15.550Z,99839.66
2023-02-23T18:33:44.919Z,99839.53
2023-02-23T18:36:18.362Z,99837.78
2023-02-23T18:38:46.274Z,99840.75
2023-02-23T18:41:13.897Z,99841.56
2023-02-23T18:43:41.800Z,99839.22
2023-02-23T18:46:11.565Z,99840.91
2023-02-23T18:48:40.160Z,99836.25
2023-02-23T18:51:10.153Z,99834.28
2023-02-23T18:53:38.432Z,99835.94
2023-02-23T18:56:07.718Z,99835.53
2023-02-23T18:58:35.699Z,99834.06
2023-02-23T19:01:18.048Z,99824.63
2023-02-23T19:03:47.187Z,99830.97
2023-02-23T19:06:16.224Z,99824.88
2023-02-23T19:08:44.520Z,99830.16
2023-02-23T19:11:12.308Z,99825.72
2023-02-23T19:13:40.286Z,99824.84
2023-02-23T19:16:08.647Z,99832.94
2023-02-23T19:18:36.379Z,99822.84
2023-02-23T19:21:04.474Z,99830.69
2023-02-23T19:23:32.935Z,99828.63
2023-02-23T19:26:03.434Z,99830.78
2023-02-23T19:28:31.521Z,99828.94
2023-02-23T19:31:09.938Z,99821.75
2023-02-23T19:33:40.930Z,99829.06
2023-02-23T19:36:10.999Z,99822.06
2023-02-23T19:38:39.905Z,99821.13
2023-02-23T19:41:09.212Z,99825.16
2023-02-23T19:43:37.371Z,99832.72
2023-02-23T19:46:10.606Z,99828.22
2023-02-23T19:48:38.760Z,99833.28
2023-02-23T19:51:11.325Z,99826.50
2023-02-23T19:56:22.674Z,99836.25
2023-02-23T20:08:00.451Z,99822.00
2023-02-23T20:10:29.201Z,99822.00
2023-02-23T20:12:56.763Z,99826.19
2023-02-23T20:24:56.852Z,99813.53
2023-02-23T20:27:25.054Z,99813.53
2023-02-23T20:29:53.643Z,99815.22
2023-02-23T20:32:21.383Z,99804.09
2023-02-23T20:34:50.357Z,99813.44
2023-02-23T20:37:17.823Z,99803.59
2023-02-23T20:39:45.235Z,99804.16
2023-02-23T20:42:13.069Z,99806.72
2023-02-23T20:44:40.918Z,99796.69
2023-02-23T20:47:09.909Z,99801.97
2023-02-23T20:49:38.212Z,99807.12
2023-02-23T20:52:06.357Z,99796.34
2023-02-23T20:54:33.863Z,99800.25
2023-02-23T20:57:07.537Z,99795.13
2023-02-23T20:59:36.730Z,99795.19
2023-02-23T21:02:05.622Z,99795.69
2023-02-23T21:04:36.090Z,99794.94
2023-02-23T21:07:06.872Z,99801.63
2023-02-23T21:09:35.387Z,99796.31
2023-02-23T21:12:03.697Z,99789.72
2023-02-23T21:14:31.450Z,99792.25
2023-02-23T21:16:58.837Z,99793.06
2023-02-23T21:19:26.372Z,99792.06
2023-02-23T21:21:58.460Z,99789.34
2023-02-23T21:24:26.494Z,99785.63
2023-02-23T21:26:54.124Z,99779.53
2023-02-23T21:29:23.749Z,99785.69
2023-02-23T21:31:51.599Z,99788.37
2023-02-23T21:34:19.642Z,99784.09
2023-02-23T21:36:47.531Z,99778.47
2023-02-23T21:39:15.075Z,99781.03
2023-02-23T21:41:42.873Z,99776.47
2023-02-23T21:44:11.496Z,99774.16
2023-02-23T21:46:40.428Z,99776.41
2023-02-23T21:49:13.175Z,99776.66
2023-02-23T21:51:40.451Z,99773.09
2023-02-23T21:54:08.317Z,99772.34
2023-02-23T21:56:36.727Z,99767.38
2023-02-23T21:59:05.785Z,99769.44
2023-02-23T22:01:36.001Z,99754.84
2023-02-23T22:04:06.154Z,99767.31
2023-02-23T22:06:40.068Z,99765.13
2023-02-23T22:09:10.971Z,99757.19
2023-02-23T22:11:39.946Z,99757.59
2023-02-23T22:14:09.175Z,99756.47
2023-02-23T22:16:39.263Z,99756.13
2023-02-23T22:19:07.419Z,99749.59
2023-02-23T22:21:38.748Z,99749.84
2023-02-23T22:24:07.072Z,99754.25
2023-02-23T22:26:37.374Z,99740.44
2023-02-23T22:29:06.556Z,99735.59
2023-02-23T22:31:34.477Z,99739.63
2023-02-23T22:34:02.623Z,99746.06
2023-02-23T22:36:30.084Z,99745.44
2023-02-23T22:38:58.490Z,99742.81
2023-02-23T22:41:29.548Z,99742.28
2023-02-23T22:43:57.782Z,99736.81
2023-02-23T22:46:26.082Z,99734.63
2023-02-23T22:48:53.629Z,99737.03
2023-02-23T22:51:21.362Z,99738.31
2023-02-23T22:53:49.361Z,99733.25
2023-02-23T22:56:16.836Z,99731.69
2023-02-23T22:58:44.179Z,99722.84
2023-02-23T23:01:13.825Z,99715.22
2023-02-23T23:03:45.982Z,99717.88
2023-02-23T23:06:22.064Z,99727.56
2023-02-23T23:08:52.406Z,99718.22
2023-02-23T23:11:22.887Z,99718.13
2023-02-23T23:13:53.460Z,99717.59
2023-02-23T23:16:31.588Z,99716.12
2023-02-23T23:19:07.834Z,99716.50
2023-02-23T23:21:35.960Z,99716.81
2023-02-23T23:24:07.715Z,99715.84
2023-02-23T23:26:39.622Z,99717.91
2023-02-23T23:29:10.304Z,99712.31
2023-02-23T23:31:39.234Z,99710.41
2023-02-23T23:34:10.388Z,99707.25
2023-02-23T23:36:43.215Z,99713.84
2023-02-23T23:39:12.327Z,99702.19
2023-02-23T23:41:40.183Z,99688.16
2023-02-23T23:44:07.671Z,99694.16
2023-02-23T23:46:37.830Z,99689.19
2023-02-23T23:49:08.227Z,99687.06
2023-02-23T23:51:38.874Z,99686.97
2023-02-23T23:54:07.810Z,99682.09
2023-02-23T23:56:37.565Z,99685.31
2023-02-23T23:59:16.388Z,99683.34
